Edisongracht — PDUJ — position and weather

sailwx.info

Track history (hours):
 
Tides and Currents Weather Stations Pressure Air Temp Water Temp Dewpoint Dewpoint Depression Visibility Wind Speed Wind Dir Waves Ship Positions

Edisongracht

Last reported at 2016-May-27 11:23 UTC. Time now 2016-May-31 05:59 UTC.
Position N 35°60' W 005°28'.

Length 136 m; beam 19 m; draft 9 m.

Type: Cargo ship. MMSI: 244262000.

Date/timePositionNaut miles runAvg speedWind from/ knotsBaromVisibWave heightAir tempDewpointWater temp
2016-May-27 11:23N 35°60' W 005°28'910.7
2016-May-27 10:33N 36°01' W 005°17'226 7.4
2016-May-26 04:13N 37°33' W 000°59'3 4.6
2016-May-26 03:31N 37°31' W 000°56'1010.5
2016-May-26 02:33N 37°30' W 000°43'1010.6
2016-May-26 01:33N 37°30' W 000°30'1110.6
2016-May-26 00:33N 37°31' W 000°17'1010.2
2016-May-25 23:33N 37°32' W 000°04'1010.3
2016-May-25 22:33N 37°32' E 000°09'1010.3
2016-May-25 21:33N 37°32' E 000°22'1110.3
2016-May-25 20:28N 37°32' E 000°36'4210.1
2016-May-25 16:18N 37°33' E 001°29'911.8
2016-May-25 15:33N 37°33' E 001°40'1211.9
2016-May-25 14:33N 37°33' E 001°55'1212.1
2016-May-25 13:33N 37°33' E 002°10'5011.6
2016-May-25 09:15N 37°34' E 003°13'1911.3
2016-May-25 07:32N 37°34' E 003°38'1212.1
2016-May-25 06:33N 37°34' E 003°53'1512.1
2016-May-25 05:17N 37°34' E 004°12'912.7
2016-May-25 04:33N 37°35' E 004°24'1313.0
2016-May-25 03:33N 37°35' E 004°40'1312.7
2016-May-25 02:33N 37°35' E 004°56'2612.5
2016-May-25 00:30N 37°36' E 005°29'24013.1
2016-May-24 06:10N 37°35' E 010°32'1012.1
2016-May-24 05:21N 37°33' E 010°44'4110.7
2016-May-24 01:33N 37°09' E 011°25'1812.7
2016-May-24 00:06N 36°51' E 011°32'1112.8
2016-May-23 23:13N 36°40' E 011°36'1013.1
2016-May-23 22:29N 36°31' E 011°39'2513.1
2016-May-23 20:32N 36°06' E 011°48'1512.7
2016-May-23 19:23N 35°52' E 011°52'1012.6
2016-May-23 18:33N 35°42' E 011°56'5112.7
2016-May-23 14:33N 34°52' E 012°00'9713.1
2016-May-23 07:11N 34°01' E 010°20'13 4.9
2016-May-23 04:28N 33°55' E 010°06'0 0.0
2016-May-22 21:31N 33°55' E 010°06'0 0.0
2016-May-22 20:10N 33°55' E 010°06'  
2016-May-19 22:31N 35°25' E 013°34'1313.8
2016-May-19 21:33N 35°26' E 013°50'1413.7
2016-May-19 20:30N 35°28' E 014°07'1313.9
2016-May-19 19:33N 35°30' E 014°24'1414.0
2016-May-19 18:33N 35°32' E 014°41'1514.2
2016-May-19 17:32N 35°34' E 014°58'4113.9
2016-May-19 14:33N 35°39' E 015°49'7313.5
2016-May-19 09:06N 35°49' E 017°18'30212.6
2016-May-18 09:09N 36°55' E 023°24'5314.2
2016-May-18 05:27N 37°34' E 024°08'1314.7
2016-May-18 04:33N 37°44' E 024°19'1414.3
2016-May-18 03:33N 37°54' E 024°32'1514.6
2016-May-18 02:33N 38°06' E 024°43'  
Track history (hours):
 
Tides and Currents Weather Stations Pressure Air Temp Water Temp Dewpoint Dewpoint Depression Visibility Wind Speed Wind Dir Waves Ship Positions

Edisongracht

Last reported at 2016-May-27 11:23 UTC. Time now 2016-May-31 05:59 UTC.
Position N 35°60' W 005°28'.

Length 136 m; beam 19 m; draft 9 m.

Type: Cargo ship. MMSI: 244262000.

Date/timePositionNaut miles runAvg speedWind from/ knotsBaromVisibWave heightAir tempDewpointWater temp
2016-May-27 11:23N 35°60' W 005°28'910.7
2016-May-27 10:33N 36°01' W 005°17'226 7.4
2016-May-26 04:13N 37°33' W 000°59'3 4.6
2016-May-26 03:31N 37°31' W 000°56'1010.5
2016-May-26 02:33N 37°30' W 000°43'1010.6
2016-May-26 01:33N 37°30' W 000°30'1110.6
2016-May-26 00:33N 37°31' W 000°17'1010.2
2016-May-25 23:33N 37°32' W 000°04'1010.3
2016-May-25 22:33N 37°32' E 000°09'1010.3
2016-May-25 21:33N 37°32' E 000°22'1110.3
2016-May-25 20:28N 37°32' E 000°36'4210.1
2016-May-25 16:18N 37°33' E 001°29'911.8
2016-May-25 15:33N 37°33' E 001°40'1211.9
2016-May-25 14:33N 37°33' E 001°55'1212.1
2016-May-25 13:33N 37°33' E 002°10'5011.6
2016-May-25 09:15N 37°34' E 003°13'1911.3
2016-May-25 07:32N 37°34' E 003°38'1212.1
2016-May-25 06:33N 37°34' E 003°53'1512.1
2016-May-25 05:17N 37°34' E 004°12'912.7
2016-May-25 04:33N 37°35' E 004°24'1313.0
2016-May-25 03:33N 37°35' E 004°40'1312.7
2016-May-25 02:33N 37°35' E 004°56'2612.5
2016-May-25 00:30N 37°36' E 005°29'24013.1
2016-May-24 06:10N 37°35' E 010°32'1012.1
2016-May-24 05:21N 37°33' E 010°44'4110.7
2016-May-24 01:33N 37°09' E 011°25'1812.7
2016-May-24 00:06N 36°51' E 011°32'1112.8
2016-May-23 23:13N 36°40' E 011°36'1013.1
2016-May-23 22:29N 36°31' E 011°39'2513.1
2016-May-23 20:32N 36°06' E 011°48'1512.7
2016-May-23 19:23N 35°52' E 011°52'1012.6
2016-May-23 18:33N 35°42' E 011°56'5112.7
2016-May-23 14:33N 34°52' E 012°00'9713.1
2016-May-23 07:11N 34°01' E 010°20'13 4.9
2016-May-23 04:28N 33°55' E 010°06'0 0.0
2016-May-22 21:31N 33°55' E 010°06'0 0.0
2016-May-22 20:10N 33°55' E 010°06'  
2016-May-19 22:31N 35°25' E 013°34'1313.8
2016-May-19 21:33N 35°26' E 013°50'1413.7
2016-May-19 20:30N 35°28' E 014°07'1313.9
2016-May-19 19:33N 35°30' E 014°24'1414.0
2016-May-19 18:33N 35°32' E 014°41'1514.2
2016-May-19 17:32N 35°34' E 014°58'4113.9
2016-May-19 14:33N 35°39' E 015°49'7313.5
2016-May-19 09:06N 35°49' E 017°18'30212.6
2016-May-18 09:09N 36°55' E 023°24'5314.2
2016-May-18 05:27N 37°34' E 024°08'1314.7
2016-May-18 04:33N 37°44' E 024°19'1414.3
2016-May-18 03:33N 37°54' E 024°32'1514.6
2016-May-18 02:33N 38°06' E 024°43'  

Dump ship's entire track history